sensor_id;sensor_type;location;lat;lon;timestamp;P1;durP1;ratioP1;P2;durP2;ratioP2
3274;SDS011;1649;53.672;10.064;2024-03-23T00:54:39;14.47;;;4.30;;
3274;SDS011;1649;53.672;10.064;2024-03-23T00:57:04;17.57;;;3.97;;
3274;SDS011;1649;53.672;10.064;2024-03-23T00:59:30;33.33;;;5.73;;
3274;SDS011;1649;53.672;10.064;2024-03-23T01:01:56;22.20;;;5.20;;
3274;SDS011;1649;53.672;10.064;2024-03-23T01:04:21;34.40;;;6.30;;
3274;SDS011;1649;53.672;10.064;2024-03-23T01:06:47;30.10;;;5.27;;
3274;SDS011;1649;53.672;10.064;2024-03-23T01:09:12;18.73;;;4.10;;
3274;SDS011;1649;53.672;10.064;2024-03-23T01:11:38;23.30;;;5.17;;
3274;SDS011;1649;53.672;10.064;2024-03-23T01:14:04;17.47;;;4.60;;
3274;SDS011;1649;53.672;10.064;2024-03-23T01:16:31;23.57;;;4.70;;
3274;SDS011;1649;53.672;10.064;2024-03-23T01:18:56;21.23;;;4.80;;
3274;SDS011;1649;53.672;10.064;2024-03-23T01:21:22;21.77;;;4.60;;
3274;SDS011;1649;53.672;10.064;2024-03-23T01:23:47;12.93;;;3.60;;
3274;SDS011;1649;53.672;10.064;2024-03-23T01:26:13;17.63;;;4.67;;
3274;SDS011;1649;53.672;10.064;2024-03-23T01:28:38;22.30;;;4.27;;
3274;SDS011;1649;53.672;10.064;2024-03-23T01:31:04;25.53;;;4.57;;
3274;SDS011;1649;53.672;10.064;2024-03-23T01:33:30;20.10;;;5.60;;
3274;SDS011;1649;53.672;10.064;2024-03-23T01:35:55;19.13;;;4.20;;
3274;SDS011;1649;53.672;10.064;2024-03-23T01:38:21;20.27;;;4.70;;
3274;SDS011;1649;53.672;10.064;2024-03-23T01:40:46;13.83;;;4.43;;
3274;SDS011;1649;53.672;10.064;2024-03-23T01:43:12;25.63;;;4.47;;
3274;SDS011;1649;53.672;10.064;2024-03-23T01:45:37;16.30;;;4.57;;
3274;SDS011;1649;53.672;10.064;2024-03-23T01:48:03;26.83;;;5.03;;
3274;SDS011;1649;53.672;10.064;2024-03-23T01:50:29;29.37;;;5.30;;
3274;SDS011;1649;53.672;10.064;2024-03-23T01:53:02;18.80;;;4.50;;
3274;SDS011;1649;53.672;10.064;2024-03-23T01:55:30;21.90;;;4.93;;
3274;SDS011;1649;53.672;10.064;2024-03-23T01:57:57;24.10;;;5.43;;
3274;SDS011;1649;53.672;10.064;2024-03-23T02:00:22;15.43;;;4.17;;
3274;SDS011;1649;53.672;10.064;2024-03-23T02:02:48;16.37;;;4.90;;
3274;SDS011;1649;53.672;10.064;2024-03-23T02:05:14;24.97;;;4.47;;
3274;SDS011;1649;53.672;10.064;2024-03-23T02:07:41;24.67;;;5.43;;
3274;SDS011;1649;53.672;10.064;2024-03-23T02:10:08;18.57;;;4.23;;
3274;SDS011;1649;53.672;10.064;2024-03-23T02:12:35;30.10;;;5.43;;
3274;SDS011;1649;53.672;10.064;2024-03-23T02:15:01;23.67;;;4.77;;
3274;SDS011;1649;53.672;10.064;2024-03-23T02:17:28;15.03;;;4.53;;
3274;SDS011;1649;53.672;10.064;2024-03-23T02:19:55;27.83;;;5.50;;
3274;SDS011;1649;53.672;10.064;2024-03-23T02:22:20;17.20;;;4.70;;
3274;SDS011;1649;53.672;10.064;2024-03-23T02:24:46;21.43;;;4.47;;
3274;SDS011;1649;53.672;10.064;2024-03-23T02:27:11;20.33;;;4.90;;
3274;SDS011;1649;53.672;10.064;2024-03-23T02:29:37;19.23;;;4.50;;
3274;SDS011;1649;53.672;10.064;2024-03-23T02:32:02;20.93;;;4.10;;
3274;SDS011;1649;53.672;10.064;2024-03-23T02:34:28;26.20;;;5.63;;
3274;SDS011;1649;53.672;10.064;2024-03-23T02:36:54;17.33;;;4.90;;
3274;SDS011;1649;53.672;10.064;2024-03-23T02:39:19;26.43;;;4.30;;
3274;SDS011;1649;53.672;10.064;2024-03-23T02:41:45;17.07;;;4.60;;
3274;SDS011;1649;53.672;10.064;2024-03-23T02:44:10;23.10;;;5.03;;
3274;SDS011;1649;53.672;10.064;2024-03-23T02:46:37;26.57;;;4.87;;
3274;SDS011;1649;53.672;10.064;2024-03-23T02:49:03;15.17;;;4.50;;
3274;SDS011;1649;53.672;10.064;2024-03-23T02:51:29;13.17;;;4.30;;
3274;SDS011;1649;53.672;10.064;2024-03-23T02:53:55;23.30;;;5.20;;
3274;SDS011;1649;53.672;10.064;2024-03-23T02:56:21;23.40;;;4.40;;
3274;SDS011;1649;53.672;10.064;2024-03-23T02:58:46;15.63;;;4.47;;
3274;SDS011;1649;53.672;10.064;2024-03-23T03:01:12;20.43;;;4.73;;
3274;SDS011;1649;53.672;10.064;2024-03-23T03:03:37;13.37;;;4.80;;
3274;SDS011;1649;53.672;10.064;2024-03-23T03:06:03;17.10;;;5.37;;
3274;SDS011;1649;53.672;10.064;2024-03-23T03:08:28;18.40;;;4.73;;
3274;SDS011;1649;53.672;10.064;2024-03-23T03:10:54;22.57;;;5.20;;
3274;SDS011;1649;53.672;10.064;2024-03-23T03:13:19;14.70;;;4.60;;
3274;SDS011;1649;53.672;10.064;2024-03-23T03:15:45;16.77;;;4.80;;
3274;SDS011;1649;53.672;10.064;2024-03-23T03:18:10;18.80;;;5.07;;
3274;SDS011;1649;53.672;10.064;2024-03-23T03:20:39;14.40;;;4.83;;
3274;SDS011;1649;53.672;10.064;2024-03-23T03:23:05;17.57;;;5.20;;
3274;SDS011;1649;53.672;10.064;2024-03-23T03:25:31;15.17;;;4.40;;
3274;SDS011;1649;53.672;10.064;2024-03-23T03:27:57;19.20;;;4.23;;
3274;SDS011;1649;53.672;10.064;2024-03-23T03:30:22;21.87;;;5.90;;
3274;SDS011;1649;53.672;10.064;2024-03-23T03:32:49;23.00;;;4.77;;
3274;SDS011;1649;53.672;10.064;2024-03-23T03:35:14;17.50;;;4.93;;
3274;SDS011;1649;53.672;10.064;2024-03-23T03:37:40;26.67;;;5.30;;
3274;SDS011;1649;53.672;10.064;2024-03-23T03:40:05;22.83;;;6.87;;
3274;SDS011;1649;53.672;10.064;2024-03-23T03:42:33;16.47;;;5.10;;
3274;SDS011;1649;53.672;10.064;2024-03-23T03:44:59;24.87;;;4.80;;
3274;SDS011;1649;53.672;10.064;2024-03-23T03:47:25;17.23;;;4.43;;
3274;SDS011;1649;53.672;10.064;2024-03-23T03:49:50;20.30;;;4.90;;
3274;SDS011;1649;53.672;10.064;2024-03-23T03:52:15;21.33;;;4.90;;
3274;SDS011;1649;53.672;10.064;2024-03-23T03:54:41;17.53;;;5.20;;
3274;SDS011;1649;53.672;10.064;2024-03-23T03:57:06;23.10;;;4.63;;
3274;SDS011;1649;53.672;10.064;2024-03-23T03:59:32;15.97;;;5.57;;
3274;SDS011;1649;53.672;10.064;2024-03-23T04:01:57;13.43;;;4.80;;
3274;SDS011;1649;53.672;10.064;2024-03-23T04:04:23;18.83;;;4.87;;
3274;SDS011;1649;53.672;10.064;2024-03-23T04:06:48;21.57;;;4.30;;
3274;SDS011;1649;53.672;10.064;2024-03-23T04:09:14;20.03;;;4.53;;
3274;SDS011;1649;53.672;10.064;2024-03-23T04:11:40;18.93;;;4.83;;
3274;SDS011;1649;53.672;10.064;2024-03-23T04:14:05;30.13;;;5.20;;
3274;SDS011;1649;53.672;10.064;2024-03-23T04:16:33;21.83;;;4.83;;
3274;SDS011;1649;53.672;10.064;2024-03-23T04:19:00;14.83;;;4.83;;
3274;SDS011;1649;53.672;10.064;2024-03-23T04:21:25;17.63;;;4.30;;
3274;SDS011;1649;53.672;10.064;2024-03-23T04:23:51;21.03;;;4.50;;
3274;SDS011;1649;53.672;10.064;2024-03-23T04:26:17;19.20;;;5.00;;
3274;SDS011;1649;53.672;10.064;2024-03-23T04:28:42;23.87;;;4.90;;
3274;SDS011;1649;53.672;10.064;2024-03-23T04:31:08;21.60;;;4.67;;
3274;SDS011;1649;53.672;10.064;2024-03-23T04:33:34;16.77;;;4.70;;
3274;SDS011;1649;53.672;10.064;2024-03-23T04:35:59;21.63;;;5.20;;
3274;SDS011;1649;53.672;10.064;2024-03-23T04:38:25;18.50;;;6.17;;
3274;SDS011;1649;53.672;10.064;2024-03-23T04:40:57;26.90;;;5.10;;
3274;SDS011;1649;53.672;10.064;2024-03-23T04:43:23;25.07;;;5.40;;
3274;SDS011;1649;53.672;10.064;2024-03-23T04:45:49;18.93;;;4.40;;
3274;SDS011;1649;53.672;10.064;2024-03-23T04:48:15;17.00;;;5.20;;
3274;SDS011;1649;53.672;10.064;2024-03-23T04:50:40;21.53;;;4.67;;
3274;SDS011;1649;53.672;10.064;2024-03-23T04:53:06;17.83;;;5.80;;
3274;SDS011;1649;53.672;10.064;2024-03-23T04:55:32;18.87;;;5.03;;
3274;SDS011;1649;53.672;10.064;2024-03-23T04:57:57;18.30;;;5.50;;
3274;SDS011;1649;53.672;10.064;2024-03-23T05:00:23;21.00;;;5.23;;
3274;SDS011;1649;53.672;10.064;2024-03-23T05:02:48;22.80;;;5.80;;
3274;SDS011;1649;53.672;10.064;2024-03-23T05:05:14;22.47;;;4.13;;
3274;SDS011;1649;53.672;10.064;2024-03-23T05:07:39;20.30;;;5.17;;
3274;SDS011;1649;53.672;10.064;2024-03-23T05:10:06;25.00;;;5.93;;
3274;SDS011;1649;53.672;10.064;2024-03-23T05:12:36;18.53;;;5.27;;
3274;SDS011;1649;53.672;10.064;2024-03-23T05:15:03;25.57;;;5.87;;
3274;SDS011;1649;53.672;10.064;2024-03-23T05:17:34;20.93;;;5.13;;
3274;SDS011;1649;53.672;10.064;2024-03-23T05:20:01;19.53;;;4.87;;
3274;SDS011;1649;53.672;10.064;2024-03-23T05:22:27;27.07;;;7.30;;
3274;SDS011;1649;53.672;10.064;2024-03-23T05:24:53;17.30;;;4.37;;
3274;SDS011;1649;53.672;10.064;2024-03-23T05:27:18;17.20;;;4.30;;
3274;SDS011;1649;53.672;10.064;2024-03-23T05:29:44;17.30;;;4.33;;
3274;SDS011;1649;53.672;10.064;2024-03-23T05:32:09;18.53;;;5.47;;
3274;SDS011;1649;53.672;10.064;2024-03-23T05:34:35;19.70;;;5.20;;
3274;SDS011;1649;53.672;10.064;2024-03-23T05:37:00;22.60;;;4.40;;
3274;SDS011;1649;53.672;10.064;2024-03-23T05:39:26;15.13;;;3.90;;
3274;SDS011;1649;53.672;10.064;2024-03-23T05:41:51;22.50;;;5.17;;
3274;SDS011;1649;53.672;10.064;2024-03-23T05:44:17;14.90;;;4.50;;
3274;SDS011;1649;53.672;10.064;2024-03-23T05:46:43;20.37;;;4.43;;
3274;SDS011;1649;53.672;10.064;2024-03-23T05:49:13;20.30;;;5.10;;
3274;SDS011;1649;53.672;10.064;2024-03-23T05:51:39;18.50;;;4.33;;
3274;SDS011;1649;53.672;10.064;2024-03-23T05:54:04;19.40;;;5.57;;
3274;SDS011;1649;53.672;10.064;2024-03-23T05:56:30;23.10;;;4.33;;
3274;SDS011;1649;53.672;10.064;2024-03-23T05:58:56;21.90;;;6.83;;
3274;SDS011;1649;53.672;10.064;2024-03-23T06:01:22;17.97;;;4.70;;
3274;SDS011;1649;53.672;10.064;2024-03-23T06:03:47;27.03;;;4.77;;
3274;SDS011;1649;53.672;10.064;2024-03-23T06:06:13;25.63;;;5.80;;
3274;SDS011;1649;53.672;10.064;2024-03-23T06:08:38;15.33;;;3.90;;
3274;SDS011;1649;53.672;10.064;2024-03-23T06:11:04;16.57;;;4.07;;
3274;SDS011;1649;53.672;10.064;2024-03-23T06:13:33;22.57;;;5.30;;
3274;SDS011;1649;53.672;10.064;2024-03-23T06:15:58;22.10;;;5.37;;
3274;SDS011;1649;53.672;10.064;2024-03-23T06:18:24;16.57;;;4.90;;
3274;SDS011;1649;53.672;10.064;2024-03-23T06:20:50;21.63;;;5.33;;
3274;SDS011;1649;53.672;10.064;2024-03-23T06:23:15;25.43;;;5.03;;
3274;SDS011;1649;53.672;10.064;2024-03-23T06:25:42;20.70;;;4.90;;
3274;SDS011;1649;53.672;10.064;2024-03-23T06:28:08;20.07;;;4.43;;
3274;SDS011;1649;53.672;10.064;2024-03-23T06:30:33;12.50;;;4.37;;
3274;SDS011;1649;53.672;10.064;2024-03-23T06:32:59;19.03;;;4.00;;
3274;SDS011;1649;53.672;10.064;2024-03-23T06:35:24;13.70;;;4.30;;
3274;SDS011;1649;53.672;10.064;2024-03-23T06:37:49;25.53;;;4.83;;
3274;SDS011;1649;53.672;10.064;2024-03-23T06:40:15;23.73;;;4.27;;
3274;SDS011;1649;53.672;10.064;2024-03-23T06:42:40;15.10;;;3.57;;
3274;SDS011;1649;53.672;10.064;2024-03-23T06:45:06;16.47;;;4.33;;
3274;SDS011;1649;53.672;10.064;2024-03-23T06:47:32;17.93;;;4.77;;
3274;SDS011;1649;53.672;10.064;2024-03-23T06:49:59;14.17;;;4.20;;
3274;SDS011;1649;53.672;10.064;2024-03-23T06:52:27;14.30;;;3.90;;
3274;SDS011;1649;53.672;10.064;2024-03-23T06:54:53;13.03;;;3.97;;
3274;SDS011;1649;53.672;10.064;2024-03-23T06:57:18;12.33;;;3.53;;
3274;SDS011;1649;53.672;10.064;2024-03-23T06:59:44;18.23;;;4.20;;
3274;SDS011;1649;53.672;10.064;2024-03-23T07:02:09;18.60;;;4.13;;
3274;SDS011;1649;53.672;10.064;2024-03-23T07:04:35;17.37;;;3.87;;
3274;SDS011;1649;53.672;10.064;2024-03-23T07:07:01;17.23;;;4.40;;
3274;SDS011;1649;53.672;10.064;2024-03-23T07:09:29;20.83;;;5.03;;
3274;SDS011;1649;53.672;10.064;2024-03-23T07:11:58;12.33;;;3.80;;
3274;SDS011;1649;53.672;10.064;2024-03-23T07:14:24;17.40;;;4.43;;
3274;SDS011;1649;53.672;10.064;2024-03-23T07:16:50;23.13;;;4.67;;
3274;SDS011;1649;53.672;10.064;2024-03-23T07:19:16;23.73;;;4.30;;
3274;SDS011;1649;53.672;10.064;2024-03-23T07:21:42;18.87;;;4.33;;
3274;SDS011;1649;53.672;10.064;2024-03-23T07:24:09;21.07;;;4.73;;
3274;SDS011;1649;53.672;10.064;2024-03-23T07:26:34;19.43;;;4.27;;
3274;SDS011;1649;53.672;10.064;2024-03-23T07:29:00;12.83;;;4.40;;
3274;SDS011;1649;53.672;10.064;2024-03-23T07:31:25;17.63;;;5.23;;
3274;SDS011;1649;53.672;10.064;2024-03-23T07:33:51;15.77;;;4.73;;
3274;SDS011;1649;53.672;10.064;2024-03-23T07:36:16;13.53;;;4.73;;
3274;SDS011;1649;53.672;10.064;2024-03-23T07:38:42;15.97;;;4.13;;
3274;SDS011;1649;53.672;10.064;2024-03-23T07:41:10;13.03;;;4.20;;
3274;SDS011;1649;53.672;10.064;2024-03-23T07:43:37;16.93;;;4.17;;
3274;SDS011;1649;53.672;10.064;2024-03-23T07:46:03;13.53;;;4.03;;
3274;SDS011;1649;53.672;10.064;2024-03-23T07:48:29;21.53;;;4.90;;
3274;SDS011;1649;53.672;10.064;2024-03-23T07:53:35;16.77;;;4.70;;
3274;SDS011;1649;53.672;10.064;2024-03-23T07:56:08;13.57;;;3.60;;
3274;SDS011;1649;53.672;10.064;2024-03-23T07:58:37;15.57;;;3.87;;
3274;SDS011;1649;53.672;10.064;2024-03-23T08:01:04;13.83;;;3.50;;
3274;SDS011;1649;53.672;10.064;2024-03-23T08:03:30;12.90;;;3.80;;
3274;SDS011;1649;53.672;10.064;2024-03-23T08:05:56;11.60;;;4.07;;
3274;SDS011;1649;53.672;10.064;2024-03-23T08:08:22;13.60;;;4.00;;
3274;SDS011;1649;53.672;10.064;2024-03-23T08:10:48;15.90;;;3.83;;
3274;SDS011;1649;53.672;10.064;2024-03-23T08:13:17;13.33;;;3.50;;
3274;SDS011;1649;53.672;10.064;2024-03-23T08:15:43;16.47;;;3.80;;
3274;SDS011;1649;53.672;10.064;2024-03-23T08:18:09;14.17;;;3.67;;
3274;SDS011;1649;53.672;10.064;2024-03-23T08:20:37;15.87;;;4.17;;
3274;SDS011;1649;53.672;10.064;2024-03-23T08:23:03;14.00;;;4.17;;
3274;SDS011;1649;53.672;10.064;2024-03-23T08:25:30;14.70;;;4.00;;
3274;SDS011;1649;53.672;10.064;2024-03-23T08:27:57;16.83;;;3.57;;
3274;SDS011;1649;53.672;10.064;2024-03-23T08:30:22;14.67;;;4.10;;
3274;SDS011;1649;53.672;10.064;2024-03-23T08:32:48;24.40;;;4.27;;
3274;SDS011;1649;53.672;10.064;2024-03-23T08:35:13;18.73;;;4.37;;
3274;SDS011;1649;53.672;10.064;2024-03-23T08:37:39;9.97;;;3.50;;
3274;SDS011;1649;53.672;10.064;2024-03-23T08:40:05;11.57;;;2.93;;
3274;SDS011;1649;53.672;10.064;2024-03-23T08:42:31;14.20;;;4.03;;
3274;SDS011;1649;53.672;10.064;2024-03-23T08:44:57;10.03;;;3.13;;
3274;SDS011;1649;53.672;10.064;2024-03-23T08:47:22;11.63;;;3.30;;
3274;SDS011;1649;53.672;10.064;2024-03-23T08:49:47;15.07;;;3.93;;
3274;SDS011;1649;53.672;10.064;2024-03-23T08:52:13;11.87;;;3.73;;
3274;SDS011;1649;53.672;10.064;2024-03-23T08:54:39;11.73;;;3.30;;
3274;SDS011;1649;53.672;10.064;2024-03-23T08:57:04;16.40;;;3.67;;
3274;SDS011;1649;53.672;10.064;2024-03-23T08:59:30;12.67;;;3.40;;
3274;SDS011;1649;53.672;10.064;2024-03-23T09:01:55;10.33;;;3.40;;
3274;SDS011;1649;53.672;10.064;2024-03-23T09:04:21;14.53;;;3.90;;
3274;SDS011;1649;53.672;10.064;2024-03-23T09:06:46;22.43;;;4.50;;
3274;SDS011;1649;53.672;10.064;2024-03-23T09:09:12;11.50;;;3.33;;
3274;SDS011;1649;53.672;10.064;2024-03-23T09:11:37;13.87;;;3.93;;
3274;SDS011;1649;53.672;10.064;2024-03-23T09:14:03;11.97;;;3.60;;
3274;SDS011;1649;53.672;10.064;2024-03-23T09:16:29;9.83;;;2.20;;
3274;SDS011;1649;53.672;10.064;2024-03-23T09:18:54;10.70;;;3.33;;
3274;SDS011;1649;53.672;10.064;2024-03-23T09:21:20;11.03;;;2.83;;
3274;SDS011;1649;53.672;10.064;2024-03-23T09:23:45;10.83;;;3.33;;
3274;SDS011;1649;53.672;10.064;2024-03-23T09:26:11;9.87;;;3.20;;
3274;SDS011;1649;53.672;10.064;2024-03-23T09:28:37;8.57;;;2.70;;
3274;SDS011;1649;53.672;10.064;2024-03-23T09:31:03;10.40;;;3.20;;
3274;SDS011;1649;53.672;10.064;2024-03-23T09:33:29;10.10;;;2.40;;
3274;SDS011;1649;53.672;10.064;2024-03-23T09:35:54;11.50;;;2.70;;
3274;SDS011;1649;53.672;10.064;2024-03-23T09:38:21;7.70;;;2.50;;
3274;SDS011;1649;53.672;10.064;2024-03-23T09:40:48;14.53;;;3.30;;
3274;SDS011;1649;53.672;10.064;2024-03-23T09:43:18;8.53;;;2.73;;
3274;SDS011;1649;53.672;10.064;2024-03-23T09:45:44;8.70;;;2.60;;
3274;SDS011;1649;53.672;10.064;2024-03-23T09:48:10;9.50;;;2.80;;
3274;SDS011;1649;53.672;10.064;2024-03-23T09:50:40;9.73;;;2.40;;
3274;SDS011;1649;53.672;10.064;2024-03-23T09:53:10;7.93;;;2.50;;
3274;SDS011;1649;53.672;10.064;2024-03-23T09:55:37;7.67;;;2.40;;
3274;SDS011;1649;53.672;10.064;2024-03-23T09:58:03;8.50;;;3.20;;
3274;SDS011;1649;53.672;10.064;2024-03-23T10:00:33;8.07;;;2.33;;
3274;SDS011;1649;53.672;10.064;2024-03-23T10:02:59;11.97;;;2.83;;
3274;SDS011;1649;53.672;10.064;2024-03-23T10:05:28;8.60;;;2.53;;
3274;SDS011;1649;53.672;10.064;2024-03-23T10:07:57;12.00;;;2.70;;
3274;SDS011;1649;53.672;10.064;2024-03-23T10:10:22;7.87;;;2.87;;
3274;SDS011;1649;53.672;10.064;2024-03-23T10:12:50;16.70;;;3.90;;
3274;SDS011;1649;53.672;10.064;2024-03-23T10:15:19;7.83;;;2.20;;
3274;SDS011;1649;53.672;10.064;2024-03-23T10:17:45;8.87;;;3.03;;
3274;SDS011;1649;53.672;10.064;2024-03-23T10:20:10;11.60;;;2.80;;
3274;SDS011;1649;53.672;10.064;2024-03-23T10:22:37;8.20;;;3.07;;
3274;SDS011;1649;53.672;10.064;2024-03-23T10:25:07;8.67;;;2.73;;
3274;SDS011;1649;53.672;10.064;2024-03-23T10:27:34;10.50;;;2.40;;
3274;SDS011;1649;53.672;10.064;2024-03-23T10:30:07;8.60;;;2.67;;
3274;SDS011;1649;53.672;10.064;2024-03-23T10:32:34;8.80;;;2.53;;
3274;SDS011;1649;53.672;10.064;2024-03-23T10:35:21;9.70;;;2.33;;
3274;SDS011;1649;53.672;10.064;2024-03-23T10:37:49;10.63;;;3.60;;
3274;SDS011;1649;53.672;10.064;2024-03-23T10:40:16;8.30;;;2.63;;
3274;SDS011;1649;53.672;10.064;2024-03-23T10:42:43;10.90;;;2.90;;
3274;SDS011;1649;53.672;10.064;2024-03-23T10:45:09;13.40;;;2.70;;
3274;SDS011;1649;53.672;10.064;2024-03-23T10:47:35;10.40;;;2.50;;
3274;SDS011;1649;53.672;10.064;2024-03-23T10:50:02;10.53;;;2.77;;
3274;SDS011;1649;53.672;10.064;2024-03-23T10:52:30;10.13;;;3.83;;
3274;SDS011;1649;53.672;10.064;2024-03-23T10:54:55;13.50;;;2.90;;
3274;SDS011;1649;53.672;10.064;2024-03-23T10:57:23;11.30;;;2.90;;
3274;SDS011;1649;53.672;10.064;2024-03-23T10:59:55;6.93;;;2.40;;
3274;SDS011;1649;53.672;10.064;2024-03-23T11:02:22;9.13;;;2.60;;
3274;SDS011;1649;53.672;10.064;2024-03-23T11:04:48;8.60;;;1.97;;
3274;SDS011;1649;53.672;10.064;2024-03-23T11:07:32;7.43;;;2.17;;
3274;SDS011;1649;53.672;10.064;2024-03-23T11:09:58;7.13;;;1.70;;
3274;SDS011;1649;53.672;10.064;2024-03-23T11:12:25;7.47;;;1.93;;
3274;SDS011;1649;53.672;10.064;2024-03-23T11:14:56;8.97;;;2.23;;
3274;SDS011;1649;53.672;10.064;2024-03-23T11:17:25;6.60;;;2.17;;
3274;SDS011;1649;53.672;10.064;2024-03-23T11:19:57;10.97;;;2.00;;
3274;SDS011;1649;53.672;10.064;2024-03-23T11:25:02;8.13;;;1.93;;
3274;SDS011;1649;53.672;10.064;2024-03-23T11:27:51;6.77;;;1.60;;
3274;SDS011;1649;53.672;10.064;2024-03-23T11:30:34;8.17;;;2.60;;
3274;SDS011;1649;53.672;10.064;2024-03-23T11:32:59;7.33;;;1.90;;
3274;SDS011;1649;53.672;10.064;2024-03-23T11:36:00;7.57;;;2.33;;
3274;SDS011;1649;53.672;10.064;2024-03-23T11:38:19;7.77;;;1.63;;
3274;SDS011;1649;53.672;10.064;2024-03-23T11:40:45;7.20;;;2.20;;
3274;SDS011;1649;53.672;10.064;2024-03-23T11:43:15;11.23;;;1.90;;
3274;SDS011;1649;53.672;10.064;2024-03-23T11:48:14;9.47;;;2.10;;
3274;SDS011;1649;53.672;10.064;2024-03-23T11:50:43;6.77;;;1.70;;
3274;SDS011;1649;53.672;10.064;2024-03-23T11:53:43;8.17;;;1.30;;
3274;SDS011;1649;53.672;10.064;2024-03-23T11:56:05;6.37;;;1.40;;
3274;SDS011;1649;53.672;10.064;2024-03-23T11:58:30;5.53;;;1.20;;
3274;SDS011;1649;53.672;10.064;2024-03-23T12:00:58;8.50;;;1.53;;
3274;SDS011;1649;53.672;10.064;2024-03-23T12:03:26;6.13;;;1.43;;
3274;SDS011;1649;53.672;10.064;2024-03-23T12:05:56;8.13;;;1.70;;
3274;SDS011;1649;53.672;10.064;2024-03-23T12:08:33;4.77;;;1.20;;
3274;SDS011;1649;53.672;10.064;2024-03-23T12:11:13;5.50;;;1.10;;
3274;SDS011;1649;53.672;10.064;2024-03-23T12:13:41;4.53;;;1.30;;
3274;SDS011;1649;53.672;10.064;2024-03-23T12:16:10;4.03;;;1.30;;
3274;SDS011;1649;53.672;10.064;2024-03-23T12:18:37;4.27;;;1.30;;
3274;SDS011;1649;53.672;10.064;2024-03-23T12:21:05;4.57;;;1.43;;
3274;SDS011;1649;53.672;10.064;2024-03-23T12:23:31;5.73;;;1.90;;
3274;SDS011;1649;53.672;10.064;2024-03-23T12:25:57;5.10;;;2.00;;
3274;SDS011;1649;53.672;10.064;2024-03-23T12:28:23;4.20;;;1.43;;
3274;SDS011;1649;53.672;10.064;2024-03-23T12:30:48;4.50;;;1.50;;
3274;SDS011;1649;53.672;10.064;2024-03-23T12:33:14;5.63;;;1.67;;
3274;SDS011;1649;53.672;10.064;2024-03-23T12:35:39;4.50;;;1.70;;
3274;SDS011;1649;53.672;10.064;2024-03-23T12:38:05;4.00;;;1.90;;
3274;SDS011;1649;53.672;10.064;2024-03-23T12:40:30;6.77;;;1.67;;
3274;SDS011;1649;53.672;10.064;2024-03-23T12:42:56;11.90;;;1.77;;
3274;SDS011;1649;53.672;10.064;2024-03-23T12:45:21;7.03;;;1.40;;
3274;SDS011;1649;53.672;10.064;2024-03-23T12:47:47;4.17;;;1.23;;
3274;SDS011;1649;53.672;10.064;2024-03-23T12:50:13;5.17;;;1.40;;
3274;SDS011;1649;53.672;10.064;2024-03-23T12:52:38;3.57;;;1.00;;
3274;SDS011;1649;53.672;10.064;2024-03-23T12:55:04;5.60;;;1.23;;
3274;SDS011;1649;53.672;10.064;2024-03-23T12:57:33;4.60;;;1.20;;
3274;SDS011;1649;53.672;10.064;2024-03-23T12:59:58;3.07;;;0.83;;
3274;SDS011;1649;53.672;10.064;2024-03-23T13:02:24;3.87;;;1.23;;
3274;SDS011;1649;53.672;10.064;2024-03-23T13:04:50;3.13;;;1.00;;
3274;SDS011;1649;53.672;10.064;2024-03-23T13:07:17;4.70;;;1.20;;
3274;SDS011;1649;53.672;10.064;2024-03-23T13:09:43;3.10;;;1.00;;
3274;SDS011;1649;53.672;10.064;2024-03-23T13:12:08;3.40;;;1.00;;
3274;SDS011;1649;53.672;10.064;2024-03-23T13:14:34;4.30;;;1.00;;
3274;SDS011;1649;53.672;10.064;2024-03-23T13:17:00;4.13;;;1.20;;
3274;SDS011;1649;53.672;10.064;2024-03-23T13:19:26;4.13;;;1.10;;
3274;SDS011;1649;53.672;10.064;2024-03-23T13:21:53;6.13;;;1.37;;
3274;SDS011;1649;53.672;10.064;2024-03-23T13:24:23;3.70;;;1.30;;
3274;SDS011;1649;53.672;10.064;2024-03-23T13:26:49;3.57;;;1.30;;
3274;SDS011;1649;53.672;10.064;2024-03-23T13:29:16;4.80;;;1.13;;
3274;SDS011;1649;53.672;10.064;2024-03-23T13:31:42;8.10;;;1.40;;
3274;SDS011;1649;53.672;10.064;2024-03-23T13:34:07;5.77;;;1.67;;
3274;SDS011;1649;53.672;10.064;2024-03-23T13:36:33;7.43;;;1.80;;
3274;SDS011;1649;53.672;10.064;2024-03-23T13:38:58;4.20;;;1.50;;
3274;SDS011;1649;53.672;10.064;2024-03-23T13:41:24;7.70;;;2.00;;
3274;SDS011;1649;53.672;10.064;2024-03-23T13:43:49;3.50;;;1.33;;
3274;SDS011;1649;53.672;10.064;2024-03-23T13:46:15;6.63;;;1.57;;
3274;SDS011;1649;53.672;10.064;2024-03-23T13:48:41;6.47;;;1.63;;
3274;SDS011;1649;53.672;10.064;2024-03-23T13:51:07;4.53;;;1.10;;
3274;SDS011;1649;53.672;10.064;2024-03-23T13:53:33;3.53;;;1.20;;
3274;SDS011;1649;53.672;10.064;2024-03-23T13:55:58;5.03;;;1.43;;
3274;SDS011;1649;53.672;10.064;2024-03-23T13:58:24;4.10;;;1.43;;
3274;SDS011;1649;53.672;10.064;2024-03-23T14:00:52;3.50;;;1.37;;
3274;SDS011;1649;53.672;10.064;2024-03-23T14:03:18;5.10;;;1.33;;
3274;SDS011;1649;53.672;10.064;2024-03-23T14:05:44;3.70;;;1.40;;
3274;SDS011;1649;53.672;10.064;2024-03-23T14:08:12;4.70;;;1.60;;
3274;SDS011;1649;53.672;10.064;2024-03-23T14:10:40;5.13;;;1.53;;
3274;SDS011;1649;53.672;10.064;2024-03-23T14:13:06;6.77;;;1.47;;
3274;SDS011;1649;53.672;10.064;2024-03-23T14:15:31;6.13;;;1.80;;
3274;SDS011;1649;53.672;10.064;2024-03-23T14:17:57;4.23;;;1.77;;
3274;SDS011;1649;53.672;10.064;2024-03-23T14:20:23;5.77;;;1.63;;
3274;SDS011;1649;53.672;10.064;2024-03-23T14:22:49;6.07;;;1.93;;
3274;SDS011;1649;53.672;10.064;2024-03-23T14:25:14;5.37;;;1.60;;
3274;SDS011;1649;53.672;10.064;2024-03-23T14:27:40;6.27;;;1.90;;
3274;SDS011;1649;53.672;10.064;2024-03-23T14:30:06;11.23;;;2.60;;
3274;SDS011;1649;53.672;10.064;2024-03-23T14:32:32;7.03;;;2.33;;
3274;SDS011;1649;53.672;10.064;2024-03-23T14:35:02;6.17;;;2.00;;
3274;SDS011;1649;53.672;10.064;2024-03-23T14:37:28;7.20;;;2.27;;
3274;SDS011;1649;53.672;10.064;2024-03-23T14:39:56;8.00;;;2.10;;
3274;SDS011;1649;53.672;10.064;2024-03-23T14:42:23;5.27;;;2.03;;
3274;SDS011;1649;53.672;10.064;2024-03-23T14:44:49;8.50;;;2.13;;
3274;SDS011;1649;53.672;10.064;2024-03-23T14:47:15;7.63;;;2.10;;
3274;SDS011;1649;53.672;10.064;2024-03-23T14:49:42;7.33;;;1.93;;
3274;SDS011;1649;53.672;10.064;2024-03-23T14:52:11;10.93;;;2.37;;
3274;SDS011;1649;53.672;10.064;2024-03-23T14:54:40;6.20;;;1.93;;
3274;SDS011;1649;53.672;10.064;2024-03-23T14:57:05;7.30;;;1.83;;
3274;SDS011;1649;53.672;10.064;2024-03-23T14:59:35;5.10;;;1.70;;
3274;SDS011;1649;53.672;10.064;2024-03-23T15:02:03;4.90;;;1.80;;
3274;SDS011;1649;53.672;10.064;2024-03-23T15:04:32;6.57;;;1.80;;
3274;SDS011;1649;53.672;10.064;2024-03-23T15:06:58;6.00;;;1.80;;
3274;SDS011;1649;53.672;10.064;2024-03-23T15:09:23;7.77;;;2.20;;
3274;SDS011;1649;53.672;10.064;2024-03-23T15:11:48;11.63;;;1.97;;
3274;SDS011;1649;53.672;10.064;2024-03-23T15:14:14;5.70;;;2.40;;
3274;SDS011;1649;53.672;10.064;2024-03-23T15:16:39;4.97;;;1.73;;
3274;SDS011;1649;53.672;10.064;2024-03-23T15:19:07;6.33;;;1.77;;
3274;SDS011;1649;53.672;10.064;2024-03-23T15:21:33;7.20;;;1.50;;
3274;SDS011;1649;53.672;10.064;2024-03-23T15:23:58;9.30;;;2.27;;
3274;SDS011;1649;53.672;10.064;2024-03-23T15:26:24;6.27;;;1.80;;
3274;SDS011;1649;53.672;10.064;2024-03-23T15:28:50;5.77;;;1.97;;
3274;SDS011;1649;53.672;10.064;2024-03-23T15:31:21;6.63;;;1.70;;
3274;SDS011;1649;53.672;10.064;2024-03-23T15:33:47;5.40;;;1.40;;
3274;SDS011;1649;53.672;10.064;2024-03-23T15:36:12;4.80;;;1.70;;
3274;SDS011;1649;53.672;10.064;2024-03-23T15:38:38;6.00;;;1.47;;
3274;SDS011;1649;53.672;10.064;2024-03-23T15:41:03;3.77;;;1.33;;
3274;SDS011;1649;53.672;10.064;2024-03-23T15:43:29;3.57;;;1.20;;
3274;SDS011;1649;53.672;10.064;2024-03-23T15:45:56;6.60;;;1.43;;
3274;SDS011;1649;53.672;10.064;2024-03-23T15:48:24;5.77;;;1.57;;
3274;SDS011;1649;53.672;10.064;2024-03-23T15:50:52;5.83;;;1.40;;